createdAt,value
2022-08-07T00:01:12.640Z,63.28
2022-08-07T00:03:55.144Z,62.76
2022-08-07T00:06:29.594Z,63.23
2022-08-07T00:09:16.124Z,63.15
2022-08-07T00:11:53.988Z,64.18
2022-08-07T00:14:30.119Z,64.36
2022-08-07T00:17:01.771Z,63.83
2022-08-07T00:19:59.670Z,63.84
2022-08-07T00:22:24.592Z,64.42
2022-08-07T00:25:04.554Z,64.22
2022-08-07T00:27:51.947Z,64.96
2022-08-07T00:30:26.518Z,65.92
2022-08-07T00:32:57.029Z,65.49
2022-08-07T00:35:24.840Z,66.00
2022-08-07T00:37:52.079Z,66.15
2022-08-07T00:40:39.300Z,65.95
2022-08-07T00:43:09.924Z,64.67
2022-08-07T00:45:38.672Z,63.80
2022-08-07T00:48:10.818Z,64.02
2022-08-07T00:50:50.279Z,63.57
2022-08-07T00:53:20.116Z,63.75
2022-08-07T00:56:02.401Z,63.87
2022-08-07T00:58:31.099Z,63.65
2022-08-07T01:00:59.137Z,63.07
2022-08-07T01:03:55.393Z,63.33
2022-08-07T01:06:16.613Z,64.62
2022-08-07T01:08:53.576Z,64.20
2022-08-07T01:12:10.299Z,64.77
2022-08-07T01:14:10.902Z,65.01
2022-08-07T01:16:38.555Z,64.82
2022-08-07T01:19:19.164Z,65.08
2022-08-07T01:21:53.200Z,64.77
2022-08-07T01:24:21.749Z,65.38
2022-08-07T01:26:51.922Z,63.94
2022-08-07T01:29:20.031Z,64.78
2022-08-07T01:31:48.584Z,64.79
2022-08-07T01:34:16.807Z,65.18
2022-08-07T01:36:45.178Z,65.26
2022-08-07T01:39:21.845Z,65.01
2022-08-07T01:42:07.481Z,65.69
2022-08-07T01:44:38.266Z,65.62
2022-08-07T01:48:16.479Z,65.91
2022-08-07T01:49:54.799Z,67.47
2022-08-07T01:52:26.638Z,67.22
2022-08-07T01:54:57.193Z,65.98
2022-08-07T01:57:29.253Z,66.46
2022-08-07T02:00:02.314Z,67.57
2022-08-07T02:03:11.955Z,66.80
2022-08-07T02:05:47.645Z,67.35
2022-08-07T02:08:17.407Z,66.55
2022-08-07T02:10:55.235Z,66.69
2022-08-07T02:13:58.277Z,66.73
2022-08-07T02:16:14.709Z,69.21
2022-08-07T02:18:46.836Z,68.96
2022-08-07T02:21:16.606Z,68.13
2022-08-07T02:23:45.965Z,69.38
2022-08-07T02:26:32.424Z,67.69
2022-08-07T02:29:03.108Z,67.10
2022-08-07T02:31:32.550Z,69.49
2022-08-07T02:34:03.950Z,69.31
2022-08-07T02:36:41.257Z,71.25
2022-08-07T02:39:17.458Z,73.09
2022-08-07T02:42:00.332Z,73.58
2022-08-07T02:44:34.449Z,74.72
2022-08-07T02:47:05.353Z,74.36
2022-08-07T02:49:57.877Z,73.77
2022-08-07T02:52:32.097Z,72.65
2022-08-07T02:55:04.887Z,72.63
2022-08-07T02:57:55.535Z,72.31
2022-08-07T03:00:23.628Z,72.13
2022-08-07T03:02:54.115Z,70.75
2022-08-07T03:05:24.448Z,70.40
2022-08-07T03:08:07.119Z,70.37
2022-08-07T03:10:46.315Z,69.35
2022-08-07T03:13:15.978Z,68.86
2022-08-07T03:15:56.591Z,68.28
2022-08-07T03:18:34.834Z,69.71
2022-08-07T03:21:08.766Z,70.14
2022-08-07T03:24:17.897Z,70.00
2022-08-07T03:26:31.407Z,69.49
2022-08-07T03:29:02.364Z,71.03
2022-08-07T03:31:43.539Z,72.00
2022-08-07T03:34:18.905Z,73.72
2022-08-07T03:36:51.838Z,73.83
2022-08-07T03:39:59.975Z,72.27
2022-08-07T03:42:09.391Z,72.80
2022-08-07T03:44:38.595Z,71.50
2022-08-07T03:47:14.023Z,73.42
2022-08-07T03:49:48.000Z,74.24
2022-08-07T03:52:26.352Z,72.29
2022-08-07T03:54:57.399Z,72.20
2022-08-07T03:58:32.638Z,71.30
2022-08-07T04:00:17.700Z,71.28
2022-08-07T04:02:49.450Z,71.65
2022-08-07T04:05:20.421Z,72.79
2022-08-07T04:07:56.315Z,72.74
2022-08-07T04:10:23.796Z,73.52
2022-08-07T04:12:51.871Z,74.27
2022-08-07T04:15:21.131Z,73.92
2022-08-07T04:18:57.333Z,73.51
2022-08-07T04:20:38.696Z,72.04
2022-08-07T04:23:22.808Z,71.72
2022-08-07T04:25:50.924Z,71.55
2022-08-07T04:28:21.789Z,70.20
2022-08-07T04:30:56.968Z,70.15
2022-08-07T04:33:25.739Z,69.47
2022-08-07T04:35:54.376Z,68.36
2022-08-07T04:38:22.491Z,68.33
2022-08-07T04:40:52.555Z,67.62
2022-08-07T04:44:12.364Z,67.79
2022-08-07T04:46:25.935Z,66.42
2022-08-07T04:49:24.717Z,66.04
2022-08-07T04:52:01.640Z,65.12
2022-08-07T04:54:35.053Z,64.21
2022-08-07T04:58:15.261Z,64.46
2022-08-07T05:00:13.255Z,64.48
2022-08-07T05:02:54.853Z,63.39
2022-08-07T05:05:51.774Z,63.33
2022-08-07T05:09:00.097Z,62.63
2022-08-07T05:11:19.743Z,62.79
2022-08-07T05:14:53.189Z,61.06
2022-08-07T05:16:46.794Z,60.43
2022-08-07T05:19:32.568Z,59.06
2022-08-07T05:22:13.515Z,58.46
2022-08-07T05:24:55.337Z,58.05
2022-08-07T05:28:02.672Z,57.98
2022-08-07T05:30:12.666Z,56.90
2022-08-07T05:32:41.539Z,58.20
2022-08-07T05:35:12.651Z,57.65
2022-08-07T05:37:42.983Z,57.98
2022-08-07T05:40:18.889Z,57.82
2022-08-07T05:42:56.163Z,57.73
2022-08-07T05:45:28.249Z,56.01
2022-08-07T05:48:13.180Z,55.58
2022-08-07T05:50:43.394Z,54.42
2022-08-07T05:54:12.901Z,53.68
2022-08-07T05:56:03.751Z,54.84
2022-08-07T05:58:37.031Z,53.58
2022-08-07T06:01:06.232Z,52.83
2022-08-07T06:03:53.926Z,53.36
2022-08-07T06:06:29.362Z,54.12
2022-08-07T06:08:57.664Z,53.10
2022-08-07T06:11:26.692Z,52.90
2022-08-07T06:14:11.795Z,52.68
2022-08-07T06:16:50.663Z,51.67
2022-08-07T06:19:57.880Z,50.61
2022-08-07T06:22:23.589Z,49.61
2022-08-07T06:24:58.523Z,48.80
2022-08-07T06:28:00.565Z,48.93
2022-08-07T06:30:32.145Z,48.77
2022-08-07T06:33:04.906Z,48.95
2022-08-07T06:35:45.578Z,47.19
2022-08-07T06:38:20.293Z,47.19
2022-08-07T06:40:51.924Z,46.05
2022-08-07T06:43:23.646Z,46.96
2022-08-07T06:45:51.668Z,46.26
2022-08-07T06:48:25.236Z,46.16
2022-08-07T06:50:53.478Z,45.12
2022-08-07T06:55:27.863Z,45.38
2022-08-07T06:56:15.428Z,43.57
2022-08-07T07:00:12.820Z,44.70
2022-08-07T07:01:42.073Z,43.86
2022-08-07T07:04:32.070Z,43.30
2022-08-07T07:07:10.681Z,43.35
2022-08-07T07:09:49.371Z,43.99
2022-08-07T07:12:31.285Z,42.15
2022-08-07T07:15:04.969Z,42.52
2022-08-07T07:17:45.437Z,42.46
2022-08-07T07:20:22.021Z,42.58
2022-08-07T07:23:06.051Z,41.11
2022-08-07T07:26:34.380Z,42.42
2022-08-07T07:28:48.365Z,40.20
2022-08-07T07:31:30.486Z,41.29
2022-08-07T07:34:13.252Z,41.44
2022-08-07T07:36:47.917Z,40.18
2022-08-07T07:39:21.486Z,40.58
2022-08-07T07:42:08.744Z,39.82
2022-08-07T07:44:43.612Z,37.53
2022-08-07T07:47:22.943Z,39.99
2022-08-07T07:50:35.021Z,40.26
2022-08-07T07:52:42.165Z,39.64
2022-08-07T07:55:11.573Z,43.44
2022-08-07T07:57:50.489Z,41.86
2022-08-07T08:00:34.052Z,44.66
2022-08-07T08:03:07.865Z,40.62
2022-08-07T08:05:42.724Z,43.28
2022-08-07T08:08:32.256Z,45.85
2022-08-07T08:11:01.658Z,44.40
2022-08-07T08:13:43.852Z,43.63
2022-08-07T08:16:25.172Z,45.09
2022-08-07T08:18:55.506Z,42.00
2022-08-07T08:21:25.407Z,43.30
2022-08-07T08:24:36.169Z,40.08
2022-08-07T08:27:05.916Z,38.36
2022-08-07T08:29:54.174Z,38.30
2022-08-07T08:32:38.452Z,36.28
2022-08-07T08:35:09.862Z,37.67
2022-08-07T08:38:08.131Z,37.13
2022-08-07T08:40:30.628Z,36.67
2022-08-07T08:43:08.886Z,35.65
2022-08-07T08:45:59.634Z,37.56
2022-08-07T08:48:38.337Z,39.87
2022-08-07T08:51:14.264Z,39.75
2022-08-07T08:53:47.383Z,38.00
2022-08-07T08:56:24.656Z,36.02
2022-08-07T08:58:56.806Z,37.26
2022-08-07T09:04:13.384Z,37.40
2022-08-07T09:06:53.724Z,37.80
2022-08-07T09:09:42.701Z,38.19
2022-08-07T09:12:31.873Z,36.63
2022-08-07T09:16:24.886Z,36.88
2022-08-07T09:18:16.838Z,34.18
2022-08-07T09:21:01.086Z,29.93
2022-08-07T09:24:35.030Z,30.49
2022-08-07T09:26:57.187Z,32.07
2022-08-07T09:30:03.322Z,33.02
2022-08-07T09:32:55.471Z,35.09
2022-08-07T09:36:03.282Z,35.71
2022-08-07T09:42:09.962Z,36.69
2022-08-07T09:47:25.583Z,34.70
2022-08-07T09:48:19.408Z,32.51
2022-08-07T09:51:03.359Z,35.25
2022-08-07T09:53:55.105Z,33.74
2022-08-07T09:56:46.434Z,32.76
2022-08-07T09:59:35.855Z,34.44
2022-08-07T10:02:35.602Z,32.07
2022-08-07T10:05:58.107Z,32.96
2022-08-07T10:08:43.556Z,29.83
2022-08-07T10:12:01.754Z,29.55
2022-08-07T10:14:30.385Z,32.26
2022-08-07T10:17:14.084Z,31.57
2022-08-07T10:19:59.512Z,32.87
2022-08-07T10:22:47.435Z,31.46
2022-08-07T10:25:42.319Z,30.54
2022-08-07T10:28:38.127Z,29.74
2022-08-07T10:31:28.391Z,31.81
2022-08-07T10:34:18.227Z,31.08
2022-08-07T10:37:09.297Z,30.74
2022-08-07T10:40:03.551Z,30.92
2022-08-07T10:42:40.297Z,30.90
2022-08-07T10:45:44.420Z,30.79
2022-08-07T10:48:38.156Z,30.48
2022-08-07T10:51:16.929Z,30.32
2022-08-07T10:54:08.497Z,29.58
2022-08-07T10:56:43.263Z,29.83
2022-08-07T10:59:21.465Z,29.70
2022-08-07T11:02:05.516Z,32.32
2022-08-07T11:04:55.701Z,32.25
2022-08-07T11:07:59.508Z,30.99
2022-08-07T11:10:41.287Z,31.36
2022-08-07T11:13:42.479Z,31.74
2022-08-07T11:16:08.819Z,31.27
2022-08-07T11:18:42.463Z,31.48
2022-08-07T11:21:17.677Z,32.99
2022-08-07T11:23:59.639Z,31.63
2022-08-07T11:26:38.531Z,32.10
2022-08-07T11:29:40.999Z,30.33
2022-08-07T11:32:12.268Z,28.61
2022-08-07T11:34:45.352Z,26.81
2022-08-07T11:37:22.570Z,26.99
2022-08-07T11:40:06.270Z,29.02
2022-08-07T11:42:46.753Z,27.42
2022-08-07T11:45:35.293Z,24.85
2022-08-07T11:49:28.643Z,28.28
2022-08-07T11:52:07.658Z,29.84
2022-08-07T11:54:54.497Z,29.84
2022-08-07T11:57:57.870Z,30.82
2022-08-07T12:00:27.632Z,31.16
2022-08-07T12:03:41.403Z,32.53
2022-08-07T12:06:38.863Z,30.75
2022-08-07T12:09:16.751Z,29.46
2022-08-07T12:12:09.525Z,29.32
2022-08-07T12:14:52.713Z,28.68
2022-08-07T12:17:38.106Z,26.75
2022-08-07T12:20:26.255Z,28.33
2022-08-07T12:23:17.934Z,27.20
2022-08-07T12:26:21.591Z,29.64
2022-08-07T12:28:56.947Z,30.40
2022-08-07T12:31:53.395Z,29.31
2022-08-07T12:34:25.890Z,29.02
2022-08-07T12:36:58.805Z,30.25
2022-08-07T12:39:43.590Z,30.84
2022-08-07T12:42:27.246Z,30.28
2022-08-07T12:44:58.047Z,28.96
2022-08-07T12:47:37.701Z,27.87
2022-08-07T12:50:39.649Z,27.11
2022-08-07T12:53:17.901Z,25.14
2022-08-07T12:56:03.225Z,27.46
2022-08-07T12:58:39.980Z,28.89
2022-08-07T13:01:32.217Z,29.92
2022-08-07T13:04:32.641Z,29.53
2022-08-07T13:08:12.622Z,28.89
2022-08-07T13:10:39.199Z,30.83
2022-08-07T13:13:48.122Z,30.22
2022-08-07T13:16:15.833Z,30.19
2022-08-07T13:18:51.514Z,28.62
2022-08-07T13:21:50.110Z,27.62
2022-08-07T13:24:25.763Z,27.86
2022-08-07T13:27:00.484Z,29.24
2022-08-07T13:29:37.126Z,28.43
2022-08-07T13:32:32.037Z,31.54
2022-08-07T13:35:08.432Z,29.88
2022-08-07T13:37:55.592Z,30.12
2022-08-07T13:40:36.026Z,29.91
2022-08-07T13:43:13.334Z,28.99
2022-08-07T13:46:21.530Z,30.18
2022-08-07T13:48:38.420Z,29.35
2022-08-07T13:51:27.944Z,31.44
2022-08-07T13:54:00.657Z,27.50
2022-08-07T13:56:35.400Z,28.46
2022-08-07T13:59:15.149Z,26.86
2022-08-07T14:02:03.729Z,27.74
2022-08-07T14:04:50.247Z,27.25
2022-08-07T14:07:24.494Z,25.08
2022-08-07T14:10:12.486Z,26.56
2022-08-07T14:12:49.255Z,27.67
2022-08-07T14:15:32.005Z,29.74
2022-08-07T14:18:23.629Z,29.44
2022-08-07T14:21:08.458Z,28.39
2022-08-07T14:24:01.272Z,27.91
2022-08-07T14:26:36.218Z,28.15
2022-08-07T14:30:02.621Z,29.27
2022-08-07T14:32:00.218Z,28.77
2022-08-07T14:34:30.498Z,27.93
2022-08-07T14:37:03.120Z,28.71
2022-08-07T14:40:17.751Z,26.17
2022-08-07T14:42:26.497Z,27.38
2022-08-07T14:45:22.127Z,25.57
2022-08-07T14:47:51.259Z,27.39
2022-08-07T14:50:28.843Z,27.32
2022-08-07T14:55:56.162Z,29.50
2022-08-07T14:58:28.098Z,28.07
2022-08-07T15:00:59.270Z,28.16
2022-08-07T15:03:52.628Z,27.33
2022-08-07T15:06:23.293Z,27.92
2022-08-07T15:08:55.809Z,27.49
2022-08-07T15:11:53.434Z,28.55
2022-08-07T15:14:17.690Z,29.00
2022-08-07T15:16:55.062Z,30.81
2022-08-07T15:20:30.654Z,28.96
2022-08-07T15:22:29.379Z,29.04
2022-08-07T15:33:42.841Z,29.48
2022-08-07T15:36:11.654Z,28.56
2022-08-07T15:42:43.429Z,29.40
2022-08-07T15:44:23.864Z,29.35
2022-08-07T15:46:57.601Z,28.50
2022-08-07T15:50:03.910Z,27.21
2022-08-07T15:52:20.942Z,27.89
2022-08-07T15:54:52.011Z,28.54
2022-08-07T15:57:28.008Z,28.43
2022-08-07T16:00:09.496Z,28.30
2022-08-07T16:02:59.127Z,28.18
2022-08-07T16:05:31.264Z,28.55
2022-08-07T16:08:31.646Z,27.88
2022-08-07T16:11:00.024Z,28.57
2022-08-07T16:14:05.782Z,30.81
2022-08-07T16:16:57.046Z,29.87
2022-08-07T16:19:42.680Z,30.46
2022-08-07T16:22:55.057Z,30.13
2022-08-07T16:25:54.188Z,30.10
2022-08-07T16:30:06.569Z,29.91
2022-08-07T16:31:51.667Z,29.36
2022-08-07T16:34:40.288Z,30.42
2022-08-07T16:38:06.231Z,30.75
2022-08-07T16:40:51.160Z,29.29
2022-08-07T16:44:06.280Z,29.38
2022-08-07T16:47:04.690Z,29.52
2022-08-07T16:50:28.787Z,30.43
2022-08-07T16:54:01.236Z,29.88
2022-08-07T16:56:06.672Z,30.13
2022-08-07T16:59:10.866Z,31.24
2022-08-07T17:01:59.411Z,30.97
2022-08-07T17:04:50.853Z,31.22
2022-08-07T17:07:55.710Z,31.44
2022-08-07T17:10:32.579Z,31.87
2022-08-07T17:13:38.901Z,31.65
2022-08-07T17:16:20.591Z,30.84
2022-08-07T17:19:01.666Z,32.22
2022-08-07T17:21:51.231Z,32.67
2022-08-07T17:24:31.666Z,32.51
2022-08-07T17:27:04.254Z,32.23
2022-08-07T17:30:16.192Z,32.46
2022-08-07T17:32:52.914Z,32.25
2022-08-07T17:35:49.664Z,33.73
2022-08-07T17:38:33.414Z,34.39
2022-08-07T17:42:02.409Z,34.08
2022-08-07T17:44:02.212Z,33.25
2022-08-07T17:46:40.549Z,33.38
2022-08-07T17:49:14.704Z,33.68
2022-08-07T17:52:00.459Z,34.71
2022-08-07T17:54:40.228Z,35.18
2022-08-07T17:57:56.625Z,34.84
2022-08-07T18:00:33.231Z,34.75
2022-08-07T18:03:18.246Z,33.86
2022-08-07T18:06:03.377Z,34.20
2022-08-07T18:09:01.046Z,36.28
2022-08-07T18:12:08.214Z,35.85
2022-08-07T18:14:30.139Z,36.56
2022-08-07T18:17:05.295Z,37.59
2022-08-07T18:21:12.328Z,39.91
2022-08-07T18:22:35.458Z,39.06
2022-08-07T18:25:19.056Z,38.02
2022-08-07T18:28:33.908Z,41.38
2022-08-07T18:31:04.240Z,39.41
2022-08-07T18:33:57.152Z,41.21
2022-08-07T18:36:39.457Z,41.55
2022-08-07T18:40:06.997Z,43.52
2022-08-07T18:42:17.676Z,44.12
2022-08-07T18:45:44.167Z,44.79
2022-08-07T18:48:01.058Z,44.96
2022-08-07T18:50:53.342Z,45.16
2022-08-07T18:53:36.517Z,45.02
2022-08-07T18:56:14.048Z,45.41
2022-08-07T18:59:48.005Z,45.89
2022-08-07T19:02:31.821Z,46.08
2022-08-07T19:05:15.990Z,45.48
2022-08-07T19:07:58.547Z,45.08
2022-08-07T19:10:41.145Z,47.85
2022-08-07T19:13:23.202Z,47.45
2022-08-07T19:16:05.382Z,47.41
2022-08-07T19:18:58.300Z,48.90
2022-08-07T19:21:44.112Z,48.62
2022-08-07T19:24:30.887Z,48.09
2022-08-07T19:28:58.621Z,48.07
2022-08-07T19:30:58.702Z,48.88
2022-08-07T19:32:51.231Z,50.20
2022-08-07T19:35:22.485Z,50.12
2022-08-07T19:37:56.994Z,50.04
2022-08-07T19:40:31.861Z,49.84
2022-08-07T19:43:10.993Z,50.66
2022-08-07T19:46:07.270Z,49.44
2022-08-07T19:48:54.088Z,50.15
2022-08-07T19:51:53.190Z,50.44
2022-08-07T19:54:34.344Z,51.11
2022-08-07T19:58:00.140Z,51.50
2022-08-07T19:59:55.963Z,51.23
2022-08-07T20:02:29.784Z,51.74
2022-08-07T20:05:02.729Z,52.64
2022-08-07T20:07:45.943Z,53.54
2022-08-07T20:10:37.085Z,54.08
2022-08-07T20:13:15.800Z,53.85
2022-08-07T20:15:54.049Z,54.49
2022-08-07T20:18:33.823Z,54.09
2022-08-07T20:21:14.874Z,54.59
2022-08-07T20:23:54.266Z,55.43
2022-08-07T20:26:32.513Z,55.53
2022-08-07T20:29:10.414Z,55.94
2022-08-07T20:31:46.421Z,55.58
2022-08-07T20:34:15.068Z,55.22
2022-08-07T20:36:51.684Z,56.01
2022-08-07T20:40:01.275Z,55.82
2022-08-07T20:42:12.435Z,56.93
2022-08-07T20:44:45.604Z,57.14
2022-08-07T20:47:25.139Z,57.10
2022-08-07T20:50:01.465Z,57.24
2022-08-07T20:52:52.048Z,57.70
2022-08-07T20:55:23.552Z,57.61
2022-08-07T20:58:02.629Z,57.49
2022-08-07T21:00:39.219Z,58.21
2022-08-07T21:03:12.185Z,59.35
2022-08-07T21:05:55.923Z,58.28
2022-08-07T21:08:38.189Z,57.61
2022-08-07T21:11:14.463Z,57.86
2022-08-07T21:14:29.523Z,57.95
2022-08-07T21:16:55.874Z,58.57
2022-08-07T21:19:32.131Z,57.91
2022-08-07T21:22:15.873Z,58.78
2022-08-07T21:25:04.685Z,58.39
2022-08-07T21:27:53.986Z,58.77
2022-08-07T21:30:37.832Z,58.77
2022-08-07T21:33:14.990Z,57.58
2022-08-07T21:36:05.652Z,57.40
2022-08-07T21:38:44.164Z,57.36
2022-08-07T21:41:22.463Z,57.97
2022-08-07T21:44:01.566Z,58.71
2022-08-07T21:46:40.480Z,58.92
2022-08-07T21:49:15.150Z,59.44
2022-08-07T21:52:05.924Z,59.26
2022-08-07T21:54:52.846Z,59.35
2022-08-07T21:57:44.601Z,60.57
2022-08-07T22:00:22.051Z,61.33
2022-08-07T22:02:57.059Z,61.64
2022-08-07T22:05:46.257Z,60.50
2022-08-07T22:08:22.026Z,60.44
2022-08-07T22:10:57.914Z,60.04
2022-08-07T22:13:52.648Z,61.12
2022-08-07T22:16:39.292Z,61.89
2022-08-07T22:19:11.800Z,61.57
2022-08-07T22:22:02.679Z,60.85
2022-08-07T22:24:37.626Z,60.81
2022-08-07T22:27:12.874Z,61.64
2022-08-07T22:29:51.669Z,61.69
2022-08-07T22:32:33.520Z,61.63
2022-08-07T22:35:02.405Z,61.43
2022-08-07T22:38:03.286Z,62.00
2022-08-07T22:40:33.358Z,61.53
2022-08-07T22:43:08.879Z,61.91
2022-08-07T22:46:46.873Z,62.60
2022-08-07T22:49:15.918Z,62.54
2022-08-07T22:51:57.291Z,62.58
2022-08-07T22:54:48.954Z,63.77
2022-08-07T22:57:40.914Z,62.83
2022-08-07T23:00:17.068Z,63.87
2022-08-07T23:03:00.379Z,64.20
2022-08-07T23:06:07.730Z,64.46
2022-08-07T23:08:55.718Z,65.38
2022-08-07T23:11:44.340Z,64.75
2022-08-07T23:14:35.831Z,63.86
2022-08-07T23:17:22.777Z,63.63
2022-08-07T23:20:07.411Z,63.63
2022-08-07T23:22:48.089Z,64.54
2022-08-07T23:25:32.566Z,63.48
2022-08-07T23:28:21.917Z,64.00
2022-08-07T23:31:13.860Z,64.13
2022-08-07T23:34:38.169Z,65.31
2022-08-07T23:37:32.639Z,65.14
2022-08-07T23:40:12.214Z,65.01
2022-08-07T23:42:54.889Z,65.60
2022-08-07T23:46:01.935Z,65.87
2022-08-07T23:48:40.187Z,66.67
2022-08-07T23:52:57.060Z,65.39
2022-08-07T23:54:19.657Z,65.16
2022-08-07T23:57:09.384Z,64.78
